Time,TemperatureF,DewpointF,PressureIn,WindDirection,WindDirectionDegrees,WindSpeedMPH,WindSpeedGustMPH,Humidity,HourlyPrecipIn,Conditions,Clouds,dailyrainin,SoftwareType,DateUTC
2013-11-07 00:02:00,34.0,34.0,-100.00,NNW,344,1.0,1.0,98,0.00,,,0.00,,2013-11-07 08:02:00,
2013-11-07 00:22:00,34.0,34.0,-100.00,NE,34,1.0,2.0,99,0.00,,,0.00,,2013-11-07 08:22:00,
2013-11-07 00:32:00,34.0,34.0,-100.00,NE,34,1.0,2.0,99,0.00,,,0.00,,2013-11-07 08:32:00,
2013-11-07 00:53:00,34.0,33.0,-100.00,NNE,21,0.0,0.0,98,0.00,,,0.00,,2013-11-07 08:53:00,
2013-11-07 01:02:00,34.0,33.0,-100.00,NNE,21,0.0,0.0,98,0.00,,,0.00,,2013-11-07 09:02:00,
2013-11-07 01:21:00,34.0,34.0,-100.00,North,350,0.0,1.0,99,0.00,,,0.00,,2013-11-07 09:21:00,
2013-11-07 01:33:00,34.0,34.0,-100.00,North,350,0.0,1.0,99,0.00,,,0.00,,2013-11-07 09:33:00,
2013-11-07 01:53:00,34.0,34.0,-100.00,NW,318,0.0,1.0,99,0.00,,,0.00,,2013-11-07 09:53:00,
2013-11-07 02:03:00,34.0,34.0,-100.00,NW,318,0.0,1.0,99,0.00,,,0.00,,2013-11-07 10:03:00,
2013-11-07 02:23:00,34.0,34.0,-100.00,North,352,0.0,0.0,99,0.00,,,0.00,,2013-11-07 10:23:00,
2013-11-07 02:32:00,34.0,34.0,-100.00,North,352,0.0,0.0,99,0.00,,,0.00,,2013-11-07 10:32:00,
2013-11-07 02:53:00,35.0,34.0,-100.00,North,4,0.0,0.0,99,0.00,,,0.00,,2013-11-07 10:53:00,
2013-11-07 03:02:00,35.0,34.0,-100.00,North,4,0.0,0.0,99,0.00,,,0.00,,2013-11-07 11:02:00,
2013-11-07 03:22:00,35.0,34.0,-100.00,NNW,336,0.0,1.0,99,0.00,,,0.01,,2013-11-07 11:22:00,
2013-11-07 03:52:00,35.0,34.0,-100.00,NNW,337,0.0,0.0,99,0.01,,,0.02,,2013-11-07 11:52:00,
2013-11-07 04:02:00,35.0,34.0,-100.00,NNW,337,0.0,0.0,99,0.01,,,0.02,,2013-11-07 12:02:00,
2013-11-07 04:22:00,35.0,35.0,-100.00,North,360,0.0,1.0,99,0.02,,,0.03,,2013-11-07 12:22:00,
2013-11-07 04:32:00,35.0,35.0,-100.00,North,360,0.0,1.0,99,0.02,,,0.03,,2013-11-07 12:32:00,
2013-11-07 04:52:00,35.0,35.0,-100.00,North,353,1.0,2.0,99,0.01,,,0.05,,2013-11-07 12:52:00,
2013-11-07 05:01:00,35.0,35.0,-100.00,North,353,1.0,2.0,99,0.01,,,0.05,,2013-11-07 13:01:00,
2013-11-07 05:21:00,35.0,35.0,-100.00,NW,323,0.0,0.0,99,0.00,,,0.06,,2013-11-07 13:21:00,
2013-11-07 05:32:00,35.0,35.0,-100.00,NW,323,0.0,0.0,99,0.00,,,0.06,,2013-11-07 13:32:00,
2013-11-07 05:52:00,35.0,35.0,-100.00,ENE,65,1.0,1.0,100,0.01,,,0.07,,2013-11-07 13:52:00,
2013-11-07 06:02:00,35.0,35.0,-100.00,ENE,65,1.0,1.0,100,0.01,,,0.07,,2013-11-07 14:02:00,
2013-11-07 06:22:00,35.0,35.0,-100.00,NE,44,1.0,2.0,100,0.01,,,0.09,,2013-11-07 14:22:00,
2013-11-07 06:32:00,35.0,35.0,-100.00,NE,44,1.0,2.0,100,0.01,,,0.09,,2013-11-07 14:32:00,
2013-11-07 06:52:00,35.0,35.0,-100.00,ENE,65,1.0,2.0,100,0.01,,,0.11,,2013-11-07 14:52:00,
2013-11-07 07:02:00,35.0,35.0,-100.00,ENE,65,1.0,2.0,100,0.01,,,0.11,,2013-11-07 15:02:00,
2013-11-07 07:22:00,35.0,35.0,-100.00,NNW,336,0.0,1.0,100,0.01,,,0.13,,2013-11-07 15:22:00,
2013-11-07 07:33:00,35.0,35.0,-100.00,NNW,336,0.0,1.0,100,0.01,,,0.13,,2013-11-07 15:33:00,
2013-11-07 07:53:00,36.0,36.0,-100.00,East,93,2.0,3.0,100,0.00,,,0.14,,2013-11-07 15:53:00,
2013-11-07 08:04:00,36.0,36.0,-100.00,East,93,2.0,3.0,100,0.00,,,0.14,,2013-11-07 16:04:00,
2013-11-07 08:23:00,36.0,36.0,-100.00,SSE,155,1.0,2.0,100,0.00,,,0.15,,2013-11-07 16:23:00,
2013-11-07 08:33:00,36.0,36.0,-100.00,SSE,155,1.0,2.0,100,0.00,,,0.15,,2013-11-07 16:33:00,
2013-11-07 08:52:00,36.0,36.0,-100.00,ENE,65,1.0,2.0,100,0.01,,,0.17,,2013-11-07 16:52:00,
2013-11-07 09:02:00,36.0,36.0,-100.00,ENE,65,1.0,2.0,100,0.01,,,0.17,,2013-11-07 17:02:00,
2013-11-07 09:22:00,36.0,36.0,-100.00,SSE,151,0.0,1.0,100,0.01,,,0.19,,2013-11-07 17:22:00,
2013-11-07 09:33:00,36.0,36.0,-100.00,SSE,151,0.0,1.0,100,0.01,,,0.19,,2013-11-07 17:33:00,
2013-11-07 10:02:00,37.0,37.0,-100.00,WSW,258,1.0,2.0,100,0.00,,,0.20,,2013-11-07 18:02:00,
2013-11-07 10:23:00,37.0,37.0,-100.00,East,90,0.0,1.0,100,0.03,,,0.23,,2013-11-07 18:23:00,
2013-11-07 10:32:00,37.0,37.0,-100.00,East,90,0.0,1.0,100,0.03,,,0.23,,2013-11-07 18:32:00,
2013-11-07 10:52:00,38.0,38.0,-100.00,SSW,196,1.0,3.0,100,0.02,,,0.26,,2013-11-07 18:52:00,
2013-11-07 11:01:00,38.0,38.0,-100.00,SSW,196,1.0,3.0,100,0.02,,,0.26,,2013-11-07 19:01:00,
2013-11-07 11:21:00,37.0,37.0,-100.00,NNW,340,6.0,9.0,100,0.00,,,0.30,,2013-11-07 19:21:00,
2013-11-07 11:32:00,37.0,37.0,-100.00,NNW,340,6.0,9.0,100,0.00,,,0.30,,2013-11-07 19:32:00,
2013-11-07 11:52:00,38.0,38.0,-100.00,South,189,1.0,2.0,100,0.01,,,0.32,,2013-11-07 19:52:00,
2013-11-07 12:01:00,38.0,38.0,-100.00,South,189,1.0,2.0,100,0.01,,,0.32,,2013-11-07 20:01:00,
2013-11-07 12:21:00,38.0,38.0,-100.00,SSW,199,1.0,3.0,100,0.00,,,-99.99,,2013-11-07 20:21:00,
2013-11-07 12:32:00,38.0,38.0,-100.00,SSW,199,1.0,3.0,100,0.00,,,-99.99,,2013-11-07 20:32:00,
2013-11-07 12:52:00,40.0,40.0,-100.00,ESE,117,0.0,1.0,100,0.01,,,-99.99,,2013-11-07 20:52:00,
2013-11-07 13:02:00,40.0,40.0,-100.00,ESE,117,0.0,1.0,100,0.01,,,-99.99,,2013-11-07 21:02:00,
2013-11-07 13:22:00,40.0,40.0,-100.00,SSW,203,2.0,3.0,100,0.00,,,-99.99,,2013-11-07 21:22:00,
2013-11-07 13:34:00,40.0,40.0,-100.00,SSW,203,2.0,3.0,100,0.00,,,-99.99,,2013-11-07 21:34:00,
2013-11-07 13:53:00,40.0,40.0,-100.00,NW,325,2.0,3.0,100,0.02,,,-99.99,,2013-11-07 21:53:00,
2013-11-07 14:03:00,40.0,40.0,-100.00,NW,325,2.0,3.0,100,0.02,,,-99.99,,2013-11-07 22:03:00,
2013-11-07 14:23:00,43.0,43.0,-100.00,ESE,110,2.0,4.0,100,0.03,,,-99.99,,2013-11-07 22:23:00,
2013-11-07 14:33:00,43.0,43.0,-100.00,ESE,110,2.0,4.0,100,0.03,,,-99.99,,2013-11-07 22:33:00,
2013-11-07 14:53:00,45.0,44.0,-100.00,SE,133,4.0,7.0,98,0.01,,,-99.99,,2013-11-07 22:53:00,
2013-11-07 15:03:00,45.0,44.0,-100.00,SE,133,4.0,7.0,98,0.01,,,-99.99,,2013-11-07 23:03:00,
2013-11-07 15:22:00,45.0,44.0,-100.00,SE,136,7.0,17.0,95,0.02,,,-99.99,,2013-11-07 23:22:00,
2013-11-07 15:34:00,45.0,44.0,-100.00,SE,136,7.0,17.0,95,0.02,,,-99.99,,2013-11-07 23:34:00,
2013-11-07 15:53:00,45.0,44.0,-100.00,SE,124,3.0,4.0,98,0.07,,,-99.99,,2013-11-07 23:53:00,
2013-11-07 16:02:00,45.0,44.0,-100.00,SE,124,3.0,4.0,98,0.07,,,-99.99,,2013-11-08 00:02:00,
2013-11-07 16:22:00,45.0,44.0,-100.00,SSE,164,3.0,9.0,100,0.00,,,-99.99,,2013-11-08 00:22:00,
2013-11-07 16:32:00,45.0,44.0,-100.00,SSE,164,3.0,9.0,100,0.00,,,-99.99,,2013-11-08 00:32:00,
2013-11-07 16:52:00,44.0,44.0,-100.00,SSW,202,4.0,8.0,100,0.00,,,-99.99,,2013-11-08 00:52:00,
2013-11-07 17:02:00,44.0,44.0,-100.00,SSW,202,4.0,8.0,100,0.00,,,-99.99,,2013-11-08 01:02:00,
2013-11-07 17:22:00,43.0,43.0,-100.00,SSW,192,2.0,5.0,100,0.00,,,-99.99,,2013-11-08 01:22:00,
2013-11-07 17:32:00,43.0,43.0,-100.00,SSW,192,2.0,5.0,100,0.00,,,-99.99,,2013-11-08 01:32:00,
2013-11-07 17:52:00,41.0,41.0,-100.00,SSW,205,3.0,5.0,100,0.00,,,-99.99,,2013-11-08 01:52:00,
2013-11-07 18:02:00,41.0,41.0,-100.00,SSW,205,3.0,5.0,100,0.00,,,-99.99,,2013-11-08 02:02:00,
2013-11-07 18:21:00,40.0,40.0,-100.00,SSW,193,3.0,5.0,100,0.00,,,-99.99,,2013-11-08 02:21:00,
2013-11-07 18:32:00,40.0,40.0,-100.00,SSW,193,3.0,5.0,100,0.00,,,-99.99,,2013-11-08 02:32:00,
2013-11-07 18:52:00,40.0,39.0,-100.00,South,182,3.0,8.0,100,0.00,,,-99.99,,2013-11-08 02:52:00,
2013-11-07 19:02:00,40.0,39.0,-100.00,South,182,3.0,8.0,100,0.00,,,-99.99,,2013-11-08 03:02:00,
2013-11-07 19:21:00,39.0,39.0,-100.00,South,188,4.0,12.0,100,0.00,,,-99.99,,2013-11-08 03:21:00,
2013-11-07 19:34:00,39.0,39.0,-100.00,South,188,4.0,12.0,100,0.00,,,-99.99,,2013-11-08 03:34:00,
2013-11-07 19:55:00,39.0,39.0,-100.00,South,179,2.0,3.0,100,0.00,,,-99.99,,2013-11-08 03:55:00,
2013-11-07 20:05:00,39.0,39.0,-100.00,South,179,2.0,3.0,100,0.00,,,-99.99,,2013-11-08 04:05:00,
2013-11-07 20:23:00,39.0,39.0,-100.00,SSW,195,2.0,8.0,100,0.00,,,-99.99,,2013-11-08 04:23:00,
2013-11-07 20:34:00,39.0,39.0,-100.00,SSW,195,2.0,8.0,100,0.00,,,-99.99,,2013-11-08 04:34:00,
2013-11-07 20:54:00,40.0,40.0,-100.00,SSW,200,3.0,6.0,100,0.00,,,-99.99,,2013-11-08 04:54:00,
2013-11-07 21:03:00,40.0,40.0,-100.00,SSW,200,3.0,6.0,100,0.00,,,-99.99,,2013-11-08 05:03:00,
2013-11-07 21:23:00,40.0,40.0,-100.00,South,188,4.0,11.0,100,0.00,,,-99.99,,2013-11-08 05:23:00,
2013-11-07 21:34:00,40.0,40.0,-100.00,South,188,4.0,11.0,100,0.00,,,-99.99,,2013-11-08 05:34:00,
2013-11-07 21:54:00,40.0,40.0,-100.00,South,176,3.0,6.0,100,0.01,,,-99.99,,2013-11-08 05:54:00,
2013-11-07 22:03:00,40.0,40.0,-100.00,South,176,3.0,6.0,100,0.01,,,-99.99,,2013-11-08 06:03:00,
2013-11-07 22:23:00,40.0,40.0,-100.00,South,184,3.0,6.0,100,0.00,,,-99.99,,2013-11-08 06:23:00,
2013-11-07 22:32:00,40.0,40.0,-100.00,South,184,3.0,6.0,100,0.00,,,-99.99,,2013-11-08 06:32:00,
2013-11-07 22:52:00,40.0,40.0,-100.00,SW,219,2.0,3.0,99,0.00,,,-99.99,,2013-11-08 06:52:00,
2013-11-07 23:01:00,40.0,40.0,-100.00,SW,219,2.0,3.0,99,0.00,,,-99.99,,2013-11-08 07:01:00,
2013-11-07 23:21:00,40.0,40.0,-100.00,SSW,206,3.0,6.0,99,0.00,,,-99.99,,2013-11-08 07:21:00,
2013-11-07 23:32:00,40.0,40.0,-100.00,SSW,206,3.0,6.0,99,0.00,,,-99.99,,2013-11-08 07:32:00,
2013-11-07 23:52:00,40.0,40.0,-100.00,SSW,209,1.0,4.0,99,0.00,,,-99.99,,2013-11-08 07:52:00,